Time;durP1;ratioP1;P1;durP2;ratioP2;P2;SDS_P1;SDS_P2;PMS_P1;PMS_P2;Temp;Humidity;BMP_temperature;BMP_pressure;BME280_temperature;BME280_humidity;BME280_pressure;Samples;Min_cycle;Max_cycle;Signal;HPM_P1;HPM_P2
2023/02/08 00:00:25;;;;;;;21.97;14.03;;;;;;;;;;5090926;28;20233;-78
2023/02/08 00:02:54;;;;;;;22.43;13.80;;;;;;;;;;5090670;28;20241;-78
2023/02/08 00:05:21;;;;;;;22.90;14.17;;;;;;;;;;5091021;28;20244;-78
2023/02/08 00:07:48;;;;;;;23.97;14.33;;;;;;;;;;5090995;28;20314;-78
2023/02/08 00:10:16;;;;;;;22.07;13.90;;;;;;;;;;5090748;28;20201;-78
2023/02/08 00:12:43;;;;;;;21.77;14.77;;;;;;;;;;5090540;28;20663;-78
2023/02/08 00:15:10;;;;;;;23.47;14.60;;;;;;;;;;5090808;28;20283;-79
2023/02/08 00:17:38;;;;;;;24.47;14.47;;;;;;;;;;5090754;28;20241;-77
2023/02/08 00:20:07;;;;;;;25.73;14.60;;;;;;;;;;5091431;28;20194;-77
2023/02/08 00:22:34;;;;;;;23.90;14.50;;;;;;;;;;5090436;28;20285;-78
2023/02/08 00:25:01;;;;;;;25.23;14.80;;;;;;;;;;5092768;28;20247;-78
2023/02/08 00:27:28;;;;;;;25.27;15.20;;;;;;;;;;5111244;28;20687;-78
2023/02/08 00:29:56;;;;;;;25.97;14.87;;;;;;;;;;5115005;28;20254;-78
2023/02/08 00:32:23;;;;;;;23.67;14.17;;;;;;;;;;5114309;28;20276;-78
2023/02/08 00:34:50;;;;;;;23.10;13.93;;;;;;;;;;5114418;28;20655;-77
2023/02/08 00:37:19;;;;;;;22.63;14.23;;;;;;;;;;5115046;28;20281;-78
2023/02/08 00:39:46;;;;;;;22.80;13.80;;;;;;;;;;5103129;28;20733;-78
2023/02/08 00:42:13;;;;;;;23.00;13.83;;;;;;;;;;5092839;28;20744;-79
2023/02/08 00:44:40;;;;;;;22.20;13.60;;;;;;;;;;5089630;28;20231;-77
2023/02/08 00:47:07;;;;;;;22.97;13.17;;;;;;;;;;5073277;28;20317;-77
2023/02/08 00:49:35;;;;;;;22.97;13.67;;;;;;;;;;5073890;28;20332;-77
2023/02/08 00:52:02;;;;;;;25.10;13.43;;;;;;;;;;5073558;28;20213;-77
2023/02/08 00:54:31;;;;;;;21.90;13.33;;;;;;;;;;5073526;28;20206;-78
2023/02/08 00:56:58;;;;;;;25.97;14.17;;;;;;;;;;5073946;28;20235;-77
2023/02/08 00:59:26;;;;;;;24.20;13.87;;;;;;;;;;5073578;28;20230;-78
2023/02/08 01:01:53;;;;;;;23.43;13.87;;;;;;;;;;5073239;28;20198;-78
2023/02/08 01:04:20;;;;;;;26.57;14.27;;;;;;;;;;5073271;28;20582;-77
2023/02/08 01:06:48;;;;;;;23.53;13.73;;;;;;;;;;5073464;28;20245;-77
2023/02/08 01:09:15;;;;;;;26.33;13.83;;;;;;;;;;5073826;28;20219;-78
2023/02/08 01:11:43;;;;;;;24.90;13.83;;;;;;;;;;5080333;28;20226;-78
2023/02/08 01:14:11;;;;;;;26.17;14.17;;;;;;;;;;5093294;28;20740;-78
2023/02/08 01:16:38;;;;;;;23.10;13.33;;;;;;;;;;5092461;28;20626;-77
2023/02/08 01:19:05;;;;;;;24.30;13.70;;;;;;;;;;5093113;28;20225;-77
2023/02/08 01:21:34;;;;;;;22.83;13.70;;;;;;;;;;5093232;28;20287;-77
2023/02/08 01:24:02;;;;;;;24.60;13.87;;;;;;;;;;5093073;28;20245;-78
2023/02/08 01:26:29;;;;;;;24.13;13.17;;;;;;;;;;5092954;28;20229;-77
2023/02/08 01:28:58;;;;;;;23.70;13.50;;;;;;;;;;5093765;28;20198;-77
2023/02/08 01:31:26;;;;;;;21.13;13.73;;;;;;;;;;5092818;28;20293;-77
2023/02/08 01:33:53;;;;;;;24.70;14.23;;;;;;;;;;5093240;28;20256;-78
2023/02/08 01:36:21;;;;;;;22.37;13.23;;;;;;;;;;5093264;28;20299;-77
2023/02/08 01:38:48;;;;;;;23.73;13.83;;;;;;;;;;5092656;28;20658;-77
2023/02/08 01:41:16;;;;;;;21.03;12.90;;;;;;;;;;5092198;28;20635;-76
2023/02/08 01:44:02;;;;;;;21.30;13.33;;;;;;;;;;5087165;28;20236;-77
2023/02/08 01:46:30;;;;;;;21.20;13.00;;;;;;;;;;5072663;28;20741;-77
2023/02/08 01:48:59;;;;;;;22.47;13.33;;;;;;;;;;5072907;28;20820;-78
2023/02/08 01:51:29;;;;;;;24.00;14.10;;;;;;;;;;5072127;28;20977;-76
2023/02/08 01:53:57;;;;;;;22.60;13.60;;;;;;;;;;5072409;28;20233;-78
2023/02/08 01:56:27;;;;;;;24.33;14.47;;;;;;;;;;5072630;28;20637;-78
2023/02/08 01:58:57;;;;;;;22.67;13.20;;;;;;;;;;5072382;28;20362;-77
2023/02/08 02:01:26;;;;;;;26.83;13.50;;;;;;;;;;5072597;28;20224;-78
2023/02/08 02:03:53;;;;;;;23.90;13.87;;;;;;;;;;5072430;28;20285;-77
2023/02/08 02:06:22;;;;;;;24.90;14.20;;;;;;;;;;5072113;28;20292;-77
2023/02/08 02:08:52;;;;;;;25.20;13.83;;;;;;;;;;5072623;28;20240;-77
2023/02/08 02:11:20;;;;;;;22.97;13.53;;;;;;;;;;5076870;28;20233;-77
2023/02/08 02:13:49;;;;;;;24.70;14.00;;;;;;;;;;5092391;28;20282;-77
2023/02/08 02:16:17;;;;;;;22.97;14.13;;;;;;;;;;5086247;28;20328;-78
2023/02/08 02:18:45;;;;;;;23.33;14.43;;;;;;;;;;5080787;28;20210;-77
2023/02/08 02:21:24;;;;;;;23.83;14.07;;;;;;;;;;5072372;28;20234;-77
2023/02/08 02:24:04;;;;;;;24.73;13.87;;;;;;;;;;5072347;28;20643;-78
2023/02/08 02:27:04;;;;;;;25.63;13.80;;;;;;;;;;5071514;28;20237;-77
2023/02/08 02:29:50;;;;;;;22.03;13.43;;;;;;;;;;5029156;28;20207;-77
2023/02/08 02:32:27;;;;;;;23.67;12.63;;;;;;;;;;5029567;28;20282;-78
2023/02/08 02:34:58;;;;;;;23.30;13.43;;;;;;;;;;5029452;28;20229;-78
2023/02/08 02:37:32;;;;;;;22.60;13.93;;;;;;;;;;5029355;28;20283;-77
2023/02/08 02:40:04;;;;;;;22.40;13.53;;;;;;;;;;5029362;28;20286;-77
2023/02/08 02:45:30;;;;;;;22.27;13.43;;;;;;;;;;5029131;28;20726;-77
2023/02/08 02:48:02;;;;;;;23.03;13.13;;;;;;;;;;5029204;28;20323;-77
2023/02/08 02:50:31;;;;;;;24.00;13.90;;;;;;;;;;5028919;28;20763;-78
2023/02/08 02:53:01;;;;;;;23.13;13.53;;;;;;;;;;5029153;28;20199;-77
2023/02/08 02:55:30;;;;;;;25.63;13.97;;;;;;;;;;5029014;28;20219;-77
2023/02/08 02:57:58;;;;;;;23.37;13.73;;;;;;;;;;5029291;28;20771;-76
2023/02/08 03:00:27;;;;;;;21.50;13.47;;;;;;;;;;5049774;28;20278;-77
2023/02/08 03:02:57;;;;;;;23.97;13.87;;;;;;;;;;5071342;28;20301;-77
2023/02/08 03:05:26;;;;;;;23.93;13.17;;;;;;;;;;5070792;28;20671;-77
2023/02/08 03:08:09;;;;;;;22.23;13.20;;;;;;;;;;5071241;28;20783;-77
2023/02/08 03:10:50;;;;;;;25.20;14.23;;;;;;;;;;5071394;28;20224;-77
2023/02/08 03:13:23;;;;;;;25.70;14.20;;;;;;;;;;5071168;28;20193;-78
2023/02/08 03:15:59;;;;;;;24.17;13.73;;;;;;;;;;5071016;28;20566;-77
2023/02/08 03:18:31;;;;;;;28.37;15.03;;;;;;;;;;5071478;28;20284;-77
2023/02/08 03:21:02;;;;;;;28.87;16.13;;;;;;;;;;5090418;28;20233;-77
2023/02/08 03:23:31;;;;;;;25.07;14.97;;;;;;;;;;5091326;28;20299;-76
2023/02/08 03:26:03;;;;;;;24.93;14.80;;;;;;;;;;5090660;28;20322;-77
2023/02/08 03:28:36;;;;;;;24.53;14.80;;;;;;;;;;5090955;28;20315;-77
2023/02/08 03:31:06;;;;;;;23.13;14.03;;;;;;;;;;5091138;28;20228;-77
2023/02/08 03:33:36;;;;;;;23.20;14.07;;;;;;;;;;5091058;28;20750;-77
2023/02/08 03:36:06;;;;;;;28.70;14.87;;;;;;;;;;5091082;28;20288;-76
2023/02/08 03:38:36;;;;;;;26.57;14.17;;;;;;;;;;5090922;28;20293;-77
2023/02/08 03:41:05;;;;;;;23.77;13.90;;;;;;;;;;5090548;28;20292;-76
2023/02/08 03:43:34;;;;;;;23.73;14.20;;;;;;;;;;5091638;28;20256;-76
2023/02/08 03:46:06;;;;;;;26.90;14.50;;;;;;;;;;5088892;28;20303;-77
2023/02/08 03:48:35;;;;;;;24.83;13.87;;;;;;;;;;5088757;28;20330;-76
2023/02/08 03:51:03;;;;;;;26.27;14.33;;;;;;;;;;5090979;28;20287;-77
2023/02/08 03:53:37;;;;;;;26.13;14.13;;;;;;;;;;5091144;28;20652;-77
2023/02/08 03:56:07;;;;;;;27.43;14.27;;;;;;;;;;5087376;28;20200;-77
2023/02/08 03:58:36;;;;;;;27.43;15.43;;;;;;;;;;5088876;28;20675;-77
2023/02/08 04:01:06;;;;;;;25.43;13.93;;;;;;;;;;5090917;28;20228;-78
2023/02/08 04:03:34;;;;;;;26.60;13.87;;;;;;;;;;5085150;28;21069;-78
2023/02/08 04:06:01;;;;;;;25.00;14.77;;;;;;;;;;5093688;28;20275;-78
2023/02/08 04:08:28;;;;;;;26.13;13.87;;;;;;;;;;5094477;28;20267;-79
2023/02/08 04:10:57;;;;;;;25.17;13.47;;;;;;;;;;5094551;28;20199;-78
2023/02/08 04:13:24;;;;;;;24.70;14.03;;;;;;;;;;5094941;28;20277;-78
2023/02/08 04:15:51;;;;;;;24.93;13.93;;;;;;;;;;5094355;28;20278;-78
2023/02/08 04:18:18;;;;;;;26.33;14.67;;;;;;;;;;5094657;28;20290;-79
2023/02/08 04:20:45;;;;;;;23.97;13.83;;;;;;;;;;5094455;28;20281;-79
2023/02/08 04:23:12;;;;;;;28.50;15.10;;;;;;;;;;5094270;28;20287;-77
2023/02/08 04:25:40;;;;;;;27.23;15.00;;;;;;;;;;5094434;28;20299;-78
2023/02/08 04:28:08;;;;;;;27.43;14.97;;;;;;;;;;5094403;28;20648;-78
2023/02/08 04:30:35;;;;;;;24.87;14.20;;;;;;;;;;5094404;28;20228;-78
2023/02/08 04:33:03;;;;;;;24.90;15.10;;;;;;;;;;5094104;28;20286;-78
2023/02/08 04:35:30;;;;;;;25.97;14.43;;;;;;;;;;5094242;28;20764;-79
2023/02/08 04:37:57;;;;;;;25.33;14.23;;;;;;;;;;5093705;28;20706;-77
2023/02/08 04:40:24;;;;;;;24.97;14.37;;;;;;;;;;5094165;28;20749;-77
2023/02/08 04:42:51;;;;;;;25.90;14.63;;;;;;;;;;5094151;28;20640;-78
2023/02/08 04:45:20;;;;;;;26.47;14.10;;;;;;;;;;5094366;28;20216;-79
2023/02/08 04:47:47;;;;;;;26.10;14.30;;;;;;;;;;5093891;28;20315;-78
2023/02/08 04:50:14;;;;;;;25.67;14.03;;;;;;;;;;5094475;28;20291;-78
2023/02/08 04:52:41;;;;;;;24.03;13.83;;;;;;;;;;5093533;28;20654;-77
2023/02/08 04:55:09;;;;;;;23.10;13.53;;;;;;;;;;5093849;28;20282;-78
2023/02/08 04:57:36;;;;;;;24.80;13.40;;;;;;;;;;5093875;28;20305;-78
2023/02/08 05:00:03;;;;;;;24.47;14.03;;;;;;;;;;5093923;28;20286;-78
2023/02/08 05:02:32;;;;;;;20.97;12.93;;;;;;;;;;5094140;28;20306;-77
2023/02/08 05:04:59;;;;;;;24.00;13.13;;;;;;;;;;5093632;28;20226;-78
2023/02/08 05:07:26;;;;;;;25.97;14.20;;;;;;;;;;5093310;28;20659;-77
2023/02/08 05:09:53;;;;;;;23.63;13.60;;;;;;;;;;5093488;28;20738;-77
2023/02/08 05:12:20;;;;;;;26.27;14.53;;;;;;;;;;5093384;28;20730;-77
2023/02/08 05:14:47;;;;;;;26.27;14.57;;;;;;;;;;5092948;28;20647;-78
2023/02/08 05:17:15;;;;;;;25.50;14.90;;;;;;;;;;5093673;28;20635;-78
2023/02/08 05:19:43;;;;;;;26.30;14.30;;;;;;;;;;5093728;28;20230;-79
2023/02/08 05:22:10;;;;;;;25.03;14.57;;;;;;;;;;5093175;28;20230;-77
2023/02/08 05:24:37;;;;;;;23.97;14.17;;;;;;;;;;5093743;28;20290;-77
2023/02/08 05:27:05;;;;;;;23.57;13.93;;;;;;;;;;5092977;28;20261;-76
2023/02/08 05:29:32;;;;;;;23.37;14.00;;;;;;;;;;5093153;28;20329;-75
2023/02/08 05:31:59;;;;;;;24.20;14.00;;;;;;;;;;5092988;28;20289;-77
2023/02/08 05:34:26;;;;;;;25.97;14.00;;;;;;;;;;5093721;28;20202;-80
2023/02/08 05:36:55;;;;;;;26.13;14.67;;;;;;;;;;5093017;28;20291;-76
2023/02/08 05:39:22;;;;;;;25.83;15.17;;;;;;;;;;5093107;28;20227;-76
2023/02/08 05:41:49;;;;;;;28.03;14.70;;;;;;;;;;5093075;28;20295;-78
2023/02/08 05:44:16;;;;;;;26.30;14.93;;;;;;;;;;5093207;28;20289;-76
2023/02/08 05:46:43;;;;;;;26.53;14.80;;;;;;;;;;5092552;28;20294;-77
2023/02/08 05:49:10;;;;;;;29.17;14.63;;;;;;;;;;5092752;28;20669;-78
2023/02/08 05:51:38;;;;;;;25.87;14.13;;;;;;;;;;5092615;28;20281;-78
2023/02/08 05:54:06;;;;;;;26.93;15.13;;;;;;;;;;5093269;28;20219;-75
2023/02/08 05:56:34;;;;;;;25.73;13.53;;;;;;;;;;5093034;28;20226;-78
2023/02/08 05:59:01;;;;;;;26.87;13.67;;;;;;;;;;5092438;28;20195;-77
2023/02/08 06:01:29;;;;;;;29.43;14.83;;;;;;;;;;5092620;28;20735;-79
2023/02/08 06:03:56;;;;;;;24.90;13.60;;;;;;;;;;5092850;28;20195;-76
2023/02/08 06:06:23;;;;;;;22.43;13.47;;;;;;;;;;5092291;28;20293;-78
2023/02/08 06:08:50;;;;;;;26.43;15.20;;;;;;;;;;5092262;28;20317;-78
2023/02/08 06:11:19;;;;;;;24.07;14.23;;;;;;;;;;5092120;28;20291;-78
2023/02/08 06:13:46;;;;;;;23.67;14.00;;;;;;;;;;5092568;28;20206;-77
2023/02/08 06:16:13;;;;;;;26.20;14.87;;;;;;;;;;5092262;28;20607;-78
2023/02/08 06:18:40;;;;;;;24.60;14.70;;;;;;;;;;5092213;28;20682;-78
2023/02/08 06:21:08;;;;;;;25.40;14.40;;;;;;;;;;5092143;28;20621;-78
2023/02/08 06:23:35;;;;;;;29.33;14.93;;;;;;;;;;5092404;28;20194;-78
2023/02/08 06:26:02;;;;;;;26.23;16.00;;;;;;;;;;5091379;28;20321;-77
2023/02/08 06:28:31;;;;;;;28.23;15.67;;;;;;;;;;5092472;28;20317;-77
2023/02/08 06:30:58;;;;;;;30.37;16.00;;;;;;;;;;5092626;28;20783;-76
2023/02/08 06:33:25;;;;;;;31.73;17.20;;;;;;;;;;5092099;28;20281;-78
2023/02/08 06:35:53;;;;;;;26.23;15.50;;;;;;;;;;5091763;28;20281;-77
2023/02/08 06:38:20;;;;;;;29.47;15.97;;;;;;;;;;5092192;28;20634;-77
2023/02/08 06:40:48;;;;;;;28.27;15.50;;;;;;;;;;5091892;28;20299;-77
2023/02/08 06:43:15;;;;;;;31.67;15.03;;;;;;;;;;5088774;28;20194;-79
2023/02/08 06:45:46;;;;;;;30.57;16.03;;;;;;;;;;5091629;28;20392;-77
2023/02/08 06:48:13;;;;;;;31.60;16.23;;;;;;;;;;5091264;28;20258;-78
2023/02/08 06:50:40;;;;;;;25.93;14.57;;;;;;;;;;5089560;28;20190;-77
2023/02/08 06:53:07;;;;;;;27.23;14.87;;;;;;;;;;5091387;28;20281;-78
2023/02/08 06:55:34;;;;;;;39.10;20.60;;;;;;;;;;5091974;28;20217;-78
2023/02/08 06:58:02;;;;;;;30.40;15.87;;;;;;;;;;5091576;28;20332;-77
2023/02/08 07:00:29;;;;;;;31.17;16.33;;;;;;;;;;5091262;28;20226;-78
2023/02/08 07:02:59;;;;;;;34.63;16.97;;;;;;;;;;5091465;28;20216;-77
2023/02/08 07:05:26;;;;;;;31.60;17.40;;;;;;;;;;5091852;28;20277;-77
2023/02/08 07:07:54;;;;;;;30.77;16.30;;;;;;;;;;5091271;28;20225;-78
2023/02/08 07:10:21;;;;;;;50.07;26.67;;;;;;;;;;5091668;28;20785;-78
2023/02/08 07:12:48;;;;;;;53.17;28.33;;;;;;;;;;5091383;28;20655;-78
2023/02/08 07:15:15;;;;;;;54.70;27.13;;;;;;;;;;5091635;28;20229;-79
2023/02/08 07:17:42;;;;;;;70.63;35.20;;;;;;;;;;5091523;28;20223;-78
2023/02/08 07:20:11;;;;;;;82.40;39.37;;;;;;;;;;5091516;28;20230;-79
2023/02/08 07:22:38;;;;;;;54.07;28.83;;;;;;;;;;5091643;28;20277;-77
2023/02/08 07:25:06;;;;;;;41.90;23.07;;;;;;;;;;5091412;28;20229;-78
2023/02/08 07:27:33;;;;;;;35.90;20.83;;;;;;;;;;5091527;28;20325;-78
2023/02/08 07:30:01;;;;;;;35.40;21.13;;;;;;;;;;5091493;28;20769;-77
2023/02/08 07:32:28;;;;;;;41.67;21.20;;;;;;;;;;5090873;28;20289;-78
2023/02/08 07:34:55;;;;;;;44.87;23.90;;;;;;;;;;5091308;28;20289;-77
2023/02/08 07:37:24;;;;;;;39.77;21.37;;;;;;;;;;5091673;28;20674;-77
2023/02/08 07:39:51;;;;;;;41.80;23.37;;;;;;;;;;5095490;28;20242;-79
2023/02/08 07:42:18;;;;;;;47.23;26.97;;;;;;;;;;5095471;28;20293;-77
2023/02/08 07:44:45;;;;;;;48.37;27.23;;;;;;;;;;5095307;28;20293;-76
2023/02/08 07:47:13;;;;;;;49.47;27.50;;;;;;;;;;5095176;28;20227;-76
2023/02/08 07:49:40;;;;;;;44.27;23.93;;;;;;;;;;5095262;28;20316;-76
2023/02/08 07:52:07;;;;;;;37.27;22.03;;;;;;;;;;5095808;28;20229;-77
2023/02/08 07:54:36;;;;;;;35.17;21.63;;;;;;;;;;5095317;28;20226;-78
2023/02/08 07:57:03;;;;;;;38.13;22.53;;;;;;;;;;5094922;28;20283;-78
2023/02/08 07:59:30;;;;;;;36.43;22.97;;;;;;;;;;5095400;28;20636;-77
2023/02/08 08:01:57;;;;;;;36.37;22.30;;;;;;;;;;5094669;28;20624;-78
2023/02/08 08:04:24;;;;;;;32.93;19.90;;;;;;;;;;5095224;28;20273;-78
2023/02/08 08:06:52;;;;;;;31.57;18.67;;;;;;;;;;5095304;28;20218;-77
2023/02/08 08:09:20;;;;;;;30.97;19.10;;;;;;;;;;5095088;28;20790;-79
2023/02/08 08:11:48;;;;;;;30.80;19.80;;;;;;;;;;5094791;28;20191;-79
2023/02/08 08:14:15;;;;;;;24.93;18.40;;;;;;;;;;5094887;28;20225;-77
2023/02/08 08:16:43;;;;;;;27.50;18.57;;;;;;;;;;5094811;28;20275;-78
2023/02/08 08:19:10;;;;;;;25.30;18.13;;;;;;;;;;5094723;28;20206;-78
2023/02/08 08:21:37;;;;;;;25.93;18.13;;;;;;;;;;5095388;28;20304;-77
2023/02/08 08:24:04;;;;;;;24.87;17.77;;;;;;;;;;5094866;28;20218;-76
2023/02/08 08:26:31;;;;;;;26.60;18.23;;;;;;;;;;5094111;28;20794;-76
2023/02/08 08:29:01;;;;;;;25.80;16.73;;;;;;;;;;5094627;28;20775;-78
2023/02/08 08:31:30;;;;;;;23.70;16.53;;;;;;;;;;5094102;28;20556;-76
2023/02/08 08:33:57;;;;;;;22.10;17.30;;;;;;;;;;5094849;28;20678;-77
2023/02/08 08:36:24;;;;;;;26.90;16.23;;;;;;;;;;5094271;28;20285;-77
2023/02/08 08:38:51;;;;;;;22.03;14.17;;;;;;;;;;5094523;28;20753;-77
2023/02/08 08:41:21;;;;;;;17.70;13.93;;;;;;;;;;5094523;28;20285;-78
2023/02/08 08:43:48;;;;;;;16.17;13.30;;;;;;;;;;5094467;28;20587;-76
2023/02/08 08:46:16;;;;;;;20.70;15.67;;;;;;;;;;5093965;28;20290;-77
2023/02/08 08:48:44;;;;;;;21.17;15.77;;;;;;;;;;5093426;28;20222;-77
2023/02/08 08:51:11;;;;;;;18.37;15.20;;;;;;;;;;5094305;28;20256;-75
2023/02/08 08:53:39;;;;;;;23.53;15.73;;;;;;;;;;5094536;28;20606;-77
2023/02/08 08:56:06;;;;;;;20.77;15.80;;;;;;;;;;5093832;28;20634;-78
2023/02/08 08:58:33;;;;;;;22.43;19.53;;;;;;;;;;5094604;28;20198;-80
2023/02/08 09:01:01;;;;;;;24.53;20.03;;;;;;;;;;5094546;28;20278;-79
2023/02/08 09:03:29;;;;;;;18.37;15.43;;;;;;;;;;5095165;28;20203;-80
2023/02/08 09:05:57;;;;;;;20.23;15.53;;;;;;;;;;5094519;28;20274;-78
2023/02/08 09:08:24;;;;;;;18.37;14.87;;;;;;;;;;5094680;28;20289;-78
2023/02/08 09:10:51;;;;;;;18.73;15.10;;;;;;;;;;5094685;28;20321;-79
2023/02/08 09:13:20;;;;;;;19.97;14.63;;;;;;;;;;5094183;28;20221;-79
2023/02/08 09:15:47;;;;;;;18.50;15.20;;;;;;;;;;5094065;28;20205;-78
2023/02/08 09:18:14;;;;;;;18.90;14.87;;;;;;;;;;5094336;28;20221;-79
2023/02/08 09:20:43;;;;;;;19.63;15.90;;;;;;;;;;5091237;28;20294;-79
2023/02/08 09:23:10;;;;;;;22.73;18.90;;;;;;;;;;5093538;28;20290;-79
2023/02/08 09:25:37;;;;;;;22.53;19.60;;;;;;;;;;5093969;28;20226;-78
2023/02/08 09:28:05;;;;;;;38.17;29.63;;;;;;;;;;5093691;28;20256;-79
2023/02/08 09:30:33;;;;;;;72.47;56.00;;;;;;;;;;5107595;28;20221;-80
2023/02/08 09:33:00;;;;;;;69.47;52.67;;;;;;;;;;5090294;28;20199;-80
2023/02/08 09:35:27;;;;;;;42.23;28.73;;;;;;;;;;5078525;28;20287;-78
2023/02/08 09:37:56;;;;;;;35.03;23.63;;;;;;;;;;5088381;28;20198;-78
2023/02/08 09:40:25;;;;;;;65.33;39.67;;;;;;;;;;5092160;28;20213;-79
2023/02/08 09:43:00;;;;;;;27.03;19.87;;;;;;;;;;5088357;28;20726;-79
2023/02/08 09:45:35;;;;;;;32.93;22.60;;;;;;;;;;5085847;28;20746;-78
2023/02/08 09:48:08;;;;;;;84.30;59.90;;;;;;;;;;5073413;28;20195;-79
2023/02/08 09:50:38;;;;;;;26.30;21.70;;;;;;;;;;5089982;28;20272;-79
2023/02/08 09:53:12;;;;;;;28.10;20.67;;;;;;;;;;5092126;28;20199;-77
2023/02/08 09:55:41;;;;;;;26.67;20.33;;;;;;;;;;5075952;28;20302;-77
2023/02/08 09:58:18;;;;;;;50.97;35.30;;;;;;;;;;5085974;28;20710;-78
2023/02/08 10:00:49;;;;;;;26.33;20.23;;;;;;;;;;5091657;28;20298;-79
2023/02/08 10:03:22;;;;;;;21.67;17.63;;;;;;;;;;5092543;28;20194;-78
2023/02/08 10:05:49;;;;;;;20.53;16.13;;;;;;;;;;5093267;28;20222;-79
2023/02/08 10:08:18;;;;;;;23.37;17.07;;;;;;;;;;5091012;28;20731;-80
2023/02/08 10:10:51;;;;;;;30.70;21.67;;;;;;;;;;5092105;28;20317;-79
2023/02/08 10:13:28;;;;;;;20.60;15.17;;;;;;;;;;5072155;28;20685;-79
2023/02/08 10:16:00;;;;;;;19.17;13.83;;;;;;;;;;5072695;28;20260;-78
2023/02/08 10:18:35;;;;;;;31.63;25.00;;;;;;;;;;5071987;28;20223;-79
2023/02/08 10:21:14;;;;;;;20.20;15.80;;;;;;;;;;5072251;28;20290;-79
2023/02/08 10:24:02;;;;;;;16.77;13.50;;;;;;;;;;5071891;28;20190;-78
2023/02/08 10:26:33;;;;;;;18.13;14.13;;;;;;;;;;5072005;28;20313;-78
2023/02/08 10:29:18;;;;;;;19.17;14.33;;;;;;;;;;5072319;28;20632;-79
2023/02/08 10:31:53;;;;;;;18.77;14.70;;;;;;;;;;5071577;28;20234;-78
2023/02/08 10:34:24;;;;;;;20.63;14.77;;;;;;;;;;5071882;28;20227;-79
2023/02/08 10:36:51;;;;;;;18.37;14.23;;;;;;;;;;5071954;28;20282;-78
2023/02/08 10:39:24;;;;;;;24.47;18.80;;;;;;;;;;5072011;28;20282;-80
2023/02/08 10:41:52;;;;;;;20.00;14.97;;;;;;;;;;5071342;28;20294;-79
2023/02/08 10:44:26;;;;;;;21.07;15.67;;;;;;;;;;5071933;28;20282;-79
2023/02/08 10:46:57;;;;;;;18.77;13.87;;;;;;;;;;5071763;28;20237;-79
2023/02/08 10:49:34;;;;;;;17.60;13.43;;;;;;;;;;5071548;28;20231;-79
2023/02/08 10:52:02;;;;;;;16.83;12.30;;;;;;;;;;5072146;28;20198;-79
2023/02/08 10:54:31;;;;;;;18.13;13.63;;;;;;;;;;5071326;28;20195;-78
2023/02/08 10:57:02;;;;;;;16.30;12.63;;;;;;;;;;5077309;28;20791;-79
2023/02/08 10:59:32;;;;;;;18.17;12.43;;;;;;;;;;5092090;28;20252;-77
2023/02/08 11:01:59;;;;;;;22.20;14.63;;;;;;;;;;5092343;28;20293;-78
2023/02/08 11:04:26;;;;;;;18.37;12.87;;;;;;;;;;5091562;28;20226;-79
2023/02/08 11:06:54;;;;;;;17.20;12.87;;;;;;;;;;5091659;28;20285;-80
2023/02/08 11:09:22;;;;;;;17.47;13.03;;;;;;;;;;5091688;28;20642;-79
2023/02/08 11:11:51;;;;;;;20.40;13.93;;;;;;;;;;5091718;28;20218;-79
2023/02/08 11:14:19;;;;;;;29.53;22.50;;;;;;;;;;5092041;28;20194;-77
2023/02/08 11:16:50;;;;;;;20.93;15.33;;;;;;;;;;5092785;28;20226;-79
2023/02/08 11:19:22;;;;;;;22.57;16.20;;;;;;;;;;5093911;28;20237;-80
2023/02/08 11:21:50;;;;;;;61.53;44.90;;;;;;;;;;5092041;28;20198;-78
2023/02/08 11:24:25;;;;;;;45.07;33.30;;;;;;;;;;5091863;28;20285;-79
2023/02/08 11:26:55;;;;;;;18.53;13.97;;;;;;;;;;5091889;28;20605;-80
2023/02/08 11:29:23;;;;;;;20.83;14.97;;;;;;;;;;5091835;28;20700;-78
2023/02/08 11:31:57;;;;;;;18.57;13.33;;;;;;;;;;5091724;28;20229;-79
2023/02/08 11:34:25;;;;;;;21.60;14.17;;;;;;;;;;5091617;28;20730;-80
2023/02/08 11:36:52;;;;;;;15.93;13.60;;;;;;;;;;5092106;28;20287;-80
2023/02/08 11:39:23;;;;;;;19.63;15.33;;;;;;;;;;5091723;28;20286;-79
2023/02/08 11:41:52;;;;;;;18.03;12.93;;;;;;;;;;5091722;28;20296;-78
2023/02/08 11:44:23;;;;;;;18.63;13.53;;;;;;;;;;5091177;28;20292;-77
2023/02/08 11:46:51;;;;;;;17.50;13.37;;;;;;;;;;5091856;28;20202;-78
2023/02/08 11:49:22;;;;;;;17.90;13.30;;;;;;;;;;5091650;28;20248;-79
2023/02/08 11:51:51;;;;;;;18.30;13.13;;;;;;;;;;5091244;28;20257;-78
2023/02/08 11:54:32;;;;;;;22.63;14.10;;;;;;;;;;5091065;28;20256;-77
2023/02/08 11:57:02;;;;;;;18.10;13.33;;;;;;;;;;5087668;28;20730;-77
2023/02/08 11:59:31;;;;;;;17.33;13.70;;;;;;;;;;5090925;28;20289;-76
2023/02/08 12:01:58;;;;;;;17.20;13.73;;;;;;;;;;5075048;28;20298;-77
2023/02/08 12:04:25;;;;;;;19.70;13.67;;;;;;;;;;5071647;28;20240;-78
2023/02/08 12:07:07;;;;;;;18.47;14.70;;;;;;;;;;5070961;28;20199;-75
2023/02/08 12:09:56;;;;;;;25.93;19.60;;;;;;;;;;5070873;28;20297;-77
2023/02/08 12:12:26;;;;;;;19.63;14.50;;;;;;;;;;5089897;28;20202;-77
2023/02/08 12:15:01;;;;;;;19.23;13.97;;;;;;;;;;5091363;28;20281;-78
2023/02/08 12:17:49;;;;;;;17.30;14.00;;;;;;;;;;5091489;28;20289;-78
2023/02/08 12:20:33;;;;;;;16.63;12.57;;;;;;;;;;5091010;28;20241;-79
2023/02/08 12:23:06;;;;;;;17.58;13.25;;;;;;;;;;5088806;28;20302;-77
2023/02/08 12:25:37;;;;;;;13.37;10.23;;;;;;;;;;5092649;28;20230;-78
2023/02/08 12:28:09;;;;;;;13.90;10.70;;;;;;;;;;5091126;28;20289;-79
2023/02/08 12:30:41;;;;;;;14.87;10.13;;;;;;;;;;5093740;28;20420;-78
2023/02/08 12:33:23;;;;;;;13.63;10.70;;;;;;;;;;5091957;28;20282;-78
2023/02/08 12:36:02;;;;;;;13.13;10.17;;;;;;;;;;5091779;28;20277;-78
2023/02/08 12:41:28;;;;;;;19.87;16.40;;;;;;;;;;5092276;28;20244;-80
2023/02/08 12:44:01;;;;;;;17.30;11.80;;;;;;;;;;5091761;28;20637;-80
2023/02/08 12:46:44;;;;;;;17.60;12.07;;;;;;;;;;5093887;28;20564;-80
2023/02/08 12:49:23;;;;;;;14.87;11.23;;;;;;;;;;5090181;28;20294;-80
2023/02/08 12:51:54;;;;;;;15.40;10.43;;;;;;;;;;5093629;28;20264;-79
2023/02/08 12:54:27;;;;;;;12.13;9.73;;;;;;;;;;5094677;28;20285;-79
2023/02/08 12:56:55;;;;;;;16.33;12.10;;;;;;;;;;5094188;28;20289;-79
2023/02/08 12:59:25;;;;;;;17.43;11.97;;;;;;;;;;5094750;28;20273;-80
2023/02/08 13:01:56;;;;;;;17.57;12.60;;;;;;;;;;5093687;28;20206;-79
2023/02/08 13:04:26;;;;;;;21.50;17.07;;;;;;;;;;5092502;28;20218;-78
2023/02/08 13:06:56;;;;;;;15.37;11.80;;;;;;;;;;5101240;28;20189;-79
2023/02/08 13:09:29;;;;;;;15.87;11.77;;;;;;;;;;5094069;28;20286;-80
2023/02/08 13:11:58;;;;;;;11.13;9.33;;;;;;;;;;5093160;28;20670;-80
2023/02/08 13:14:29;;;;;;;12.80;9.50;;;;;;;;;;5090759;28;20290;-79
2023/02/08 13:17:00;;;;;;;12.03;9.77;;;;;;;;;;5092438;28;20199;-79
2023/02/08 13:19:32;;;;;;;11.10;8.97;;;;;;;;;;5091056;28;20910;-79
2023/02/08 13:22:00;;;;;;;11.00;8.43;;;;;;;;;;5092458;28;20232;-78
2023/02/08 13:24:31;;;;;;;10.50;8.77;;;;;;;;;;5092908;28;20194;-79
2023/02/08 13:26:58;;;;;;;11.57;9.50;;;;;;;;;;5093758;28;20321;-80
2023/02/08 13:29:26;;;;;;;11.00;9.03;;;;;;;;;;5093208;28;20774;-80
2023/02/08 13:31:54;;;;;;;10.30;8.27;;;;;;;;;;5093478;28;20218;-79
2023/02/08 13:34:28;;;;;;;10.73;9.53;;;;;;;;;;5092810;28;20273;-80
2023/02/08 13:36:58;;;;;;;13.63;12.23;;;;;;;;;;5093425;28;20273;-79
2023/02/08 13:39:32;;;;;;;12.90;10.80;;;;;;;;;;5092023;28;20195;-79
2023/02/08 13:42:00;;;;;;;12.53;10.37;;;;;;;;;;5091190;28;20285;-80
2023/02/08 13:44:29;;;;;;;11.47;9.97;;;;;;;;;;5093233;28;20222;-80
2023/02/08 13:46:57;;;;;;;19.37;17.50;;;;;;;;;;5093561;28;20285;-79
2023/02/08 13:49:52;;;;;;;12.07;10.30;;;;;;;;;;5092970;28;20314;-80
2023/02/08 13:52:38;;;;;;;16.80;14.10;;;;;;;;;;5090427;28;20226;-80
2023/02/08 13:55:23;;;;;;;41.43;33.10;;;;;;;;;;5090861;28;20277;-79
2023/02/08 13:57:51;;;;;;;12.20;10.70;;;;;;;;;;5089863;28;20285;-79
2023/02/08 14:00:22;;;;;;;25.83;20.33;;;;;;;;;;5087599;28;20289;-79
2023/02/08 14:02:58;;;;;;;14.30;11.33;;;;;;;;;;5082893;28;20281;-79
2023/02/08 14:05:36;;;;;;;68.97;53.10;;;;;;;;;;5085176;28;20202;-79
2023/02/08 14:08:04;;;;;;;28.67;23.70;;;;;;;;;;5091914;28;20201;-79
2023/02/08 14:10:36;;;;;;;11.23;9.50;;;;;;;;;;5091049;28;20325;-78
2023/02/08 14:13:07;;;;;;;15.03;11.90;;;;;;;;;;5088483;28;20210;-78
2023/02/08 14:15:38;;;;;;;17.53;14.27;;;;;;;;;;5092454;28;20214;-80
2023/02/08 14:18:20;;;;;;;28.80;24.00;;;;;;;;;;5086826;28;20285;-79
2023/02/08 14:20:58;;;;;;;15.57;12.70;;;;;;;;;;5091565;28;20300;-79
2023/02/08 14:23:26;;;;;;;17.37;13.23;;;;;;;;;;5092920;28;20277;-79
2023/02/08 14:25:55;;;;;;;14.83;12.13;;;;;;;;;;5092476;28;20278;-79
2023/02/08 14:28:25;;;;;;;18.27;15.33;;;;;;;;;;5091747;28;20191;-77
2023/02/08 14:30:55;;;;;;;17.30;15.50;;;;;;;;;;5091864;28;20210;-79
2023/02/08 14:33:23;;;;;;;10.17;8.87;;;;;;;;;;5091488;28;20225;-78
2023/02/08 14:35:53;;;;;;;15.00;12.33;;;;;;;;;;5093682;28;20709;-79
2023/02/08 14:38:50;;;;;;;16.20;12.37;;;;;;;;;;5091768;28;20193;-78